sensor_id;sensor_type;location;lat;lon;timestamp;pressure;altitude;pressure_sealevel;temperature;humidity
68193;BME280;55012;47.562;18.414;2024-01-30T00:01:18;101085.13;;;-0.84;100.00
68193;BME280;55012;47.562;18.414;2024-01-30T00:03:43;101082.13;;;-0.88;100.00
68193;BME280;55012;47.562;18.414;2024-01-30T00:06:09;101079.69;;;-0.89;100.00
68193;BME280;55012;47.562;18.414;2024-01-30T00:08:34;101079.69;;;-0.89;100.00
68193;BME280;55012;47.562;18.414;2024-01-30T00:11:00;101071.13;;;-0.91;100.00
68193;BME280;55012;47.562;18.414;2024-01-30T00:13:26;101074.00;;;-0.93;100.00
68193;BME280;55012;47.562;18.414;2024-01-30T00:15:51;101067.88;;;-0.93;100.00
68193;BME280;55012;47.562;18.414;2024-01-30T00:18:16;101062.00;;;-0.95;100.00
68193;BME280;55012;47.562;18.414;2024-01-30T00:20:42;101063.84;;;-0.96;100.00
68193;BME280;55012;47.562;18.414;2024-01-30T00:23:08;101071.00;;;-0.96;100.00
68193;BME280;55012;47.562;18.414;2024-01-30T00:25:33;101066.34;;;-1.01;100.00
68193;BME280;55012;47.562;18.414;2024-01-30T00:27:59;101063.91;;;-1.02;100.00
68193;BME280;55012;47.562;18.414;2024-01-30T00:30:24;101073.72;;;-1.03;100.00
68193;BME280;55012;47.562;18.414;2024-01-30T00:32:50;101071.88;;;-1.02;100.00
68193;BME280;55012;47.562;18.414;2024-01-30T00:35:15;101063.56;;;-1.06;100.00
68193;BME280;55012;47.562;18.414;2024-01-30T00:37:40;101073.72;;;-1.03;100.00
68193;BME280;55012;47.562;18.414;2024-01-30T00:40:06;101071.88;;;-1.02;100.00
68193;BME280;55012;47.562;18.414;2024-01-30T00:42:31;101071.31;;;-1.04;100.00
68193;BME280;55012;47.562;18.414;2024-01-30T00:44:57;101069.22;;;-1.02;100.00
68193;BME280;55012;47.562;18.414;2024-01-30T00:47:23;101061.50;;;-1.04;100.00
68193;BME280;55012;47.562;18.414;2024-01-30T00:49:48;101057.78;;;-1.03;100.00
68193;BME280;55012;47.562;18.414;2024-01-30T00:52:13;101058.59;;;-1.02;100.00
68193;BME280;55012;47.562;18.414;2024-01-30T00:54:39;101057.78;;;-1.03;100.00
68193;BME280;55012;47.562;18.414;2024-01-30T00:57:04;101058.03;;;-1.04;100.00
68193;BME280;55012;47.562;18.414;2024-01-30T00:59:30;101062.53;;;-1.05;100.00
68193;BME280;55012;47.562;18.414;2024-01-30T01:01:55;101051.09;;;-1.05;100.00
68193;BME280;55012;47.562;18.414;2024-01-30T01:04:20;101035.22;;;-1.12;100.00
68193;BME280;55012;47.562;18.414;2024-01-30T01:06:47;101025.41;;;-1.11;100.00
68193;BME280;55012;47.562;18.414;2024-01-30T01:09:12;101025.78;;;-1.08;100.00
68193;BME280;55012;47.562;18.414;2024-01-30T01:11:37;101023.94;;;-1.07;100.00
68193;BME280;55012;47.562;18.414;2024-01-30T01:14:04;101017.59;;;-1.06;100.00
68193;BME280;55012;47.562;18.414;2024-01-30T01:16:29;101014.50;;;-1.03;100.00
68193;BME280;55012;47.562;18.414;2024-01-30T01:18:55;101000.63;;;-1.05;100.00
68193;BME280;55012;47.562;18.414;2024-01-30T01:21:20;101000.16;;;-1.02;100.00
68193;BME280;55012;47.562;18.414;2024-01-30T01:23:46;100989.31;;;-1.01;100.00
68193;BME280;55012;47.562;18.414;2024-01-30T01:26:11;100991.78;;;-0.99;100.00
68193;BME280;55012;47.562;18.414;2024-01-30T01:28:36;100987.47;;;-1.00;100.00
68193;BME280;55012;47.562;18.414;2024-01-30T01:31:02;100979.50;;;-1.00;100.00
68193;BME280;55012;47.562;18.414;2024-01-30T01:33:33;100976.41;;;-0.97;100.00
68193;BME280;55012;47.562;18.414;2024-01-30T01:35:59;100975.59;;;-0.98;100.00
68193;BME280;55012;47.562;18.414;2024-01-30T01:38:25;100970.06;;;-0.96;100.00
68193;BME280;55012;47.562;18.414;2024-01-30T01:40:50;100969.25;;;-0.97;100.00
68193;BME280;55012;47.562;18.414;2024-01-30T01:43:16;100961.28;;;-0.97;100.00
68193;BME280;55012;47.562;18.414;2024-01-30T01:45:41;100970.28;;;-0.98;100.00
68193;BME280;55012;47.562;18.414;2024-01-30T01:48:07;100954.59;;;-0.99;100.00
68193;BME280;55012;47.562;18.414;2024-01-30T01:50:33;100955.59;;;-1.00;100.00
68193;BME280;55012;47.562;18.414;2024-01-30T01:52:59;100938.50;;;-1.04;100.00
68193;BME280;55012;47.562;18.414;2024-01-30T01:55:24;100948.09;;;-1.03;100.00
68193;BME280;55012;47.562;18.414;2024-01-30T01:57:53;100935.03;;;-1.05;100.00
68193;BME280;55012;47.562;18.414;2024-01-30T02:00:19;100928.22;;;-1.01;100.00
68193;BME280;55012;47.562;18.414;2024-01-30T02:02:45;100928.34;;;-1.07;100.00
68193;BME280;55012;47.562;18.414;2024-01-30T02:05:11;100934.00;;;-1.04;100.00
68193;BME280;55012;47.562;18.414;2024-01-30T02:07:37;100932.38;;;-1.05;100.00
68193;BME280;55012;47.562;18.414;2024-01-30T02:10:03;100925.22;;;-1.04;100.00
68193;BME280;55012;47.562;18.414;2024-01-30T02:12:29;100921.75;;;-1.05;100.00
68193;BME280;55012;47.562;18.414;2024-01-30T02:14:54;100929.97;;;-1.06;100.00
68193;BME280;55012;47.562;18.414;2024-01-30T02:17:20;100927.75;;;-1.09;100.00
68193;BME280;55012;47.562;18.414;2024-01-30T02:19:46;100925.31;;;-1.11;100.00
68193;BME280;55012;47.562;18.414;2024-01-30T02:22:11;100931.91;;;-1.14;100.00
68193;BME280;55012;47.562;18.414;2024-01-30T02:24:37;100930.47;;;-1.16;100.00
68193;BME280;55012;47.562;18.414;2024-01-30T02:27:02;100933.59;;;-1.19;100.00
68193;BME280;55012;47.562;18.414;2024-01-30T02:29:28;100929.56;;;-1.22;100.00
68193;BME280;55012;47.562;18.414;2024-01-30T02:31:53;100924.47;;;-1.23;100.00
68193;BME280;55012;47.562;18.414;2024-01-30T02:34:19;100913.72;;;-1.28;100.00
68193;BME280;55012;47.562;18.414;2024-01-30T02:36:45;100927.78;;;-1.28;100.00
68193;BME280;55012;47.562;18.414;2024-01-30T02:39:11;100939.44;;;-1.29;100.00
68193;BME280;55012;47.562;18.414;2024-01-30T02:41:36;100938.88;;;-1.31;100.00
68193;BME280;55012;47.562;18.414;2024-01-30T02:44:02;100937.84;;;-1.30;100.00
68193;BME280;55012;47.562;18.414;2024-01-30T02:46:28;100948.44;;;-1.30;100.00
68193;BME280;55012;47.562;18.414;2024-01-30T02:48:54;100937.44;;;-1.33;100.00
68193;BME280;55012;47.562;18.414;2024-01-30T02:51:19;100927.06;;;-1.35;100.00
68193;BME280;55012;47.562;18.414;2024-01-30T02:53:44;100934.22;;;-1.35;100.00
68193;BME280;55012;47.562;18.414;2024-01-30T02:56:10;100933.41;;;-1.36;100.00
68193;BME280;55012;47.562;18.414;2024-01-30T02:58:36;100935.72;;;-1.39;100.00
68193;BME280;55012;47.562;18.414;2024-01-30T03:01:02;100932.25;;;-1.40;100.00
68193;BME280;55012;47.562;18.414;2024-01-30T03:03:27;100931.66;;;-1.42;100.00
68193;BME280;55012;47.562;18.414;2024-01-30T03:05:53;100935.91;;;-1.41;100.00
68193;BME280;55012;47.562;18.414;2024-01-30T03:08:18;100932.25;;;-1.40;100.00
68193;BME280;55012;47.562;18.414;2024-01-30T03:10:44;100933.06;;;-1.39;100.00
68193;BME280;55012;47.562;18.414;2024-01-30T03:13:09;100926.34;;;-1.42;100.00
68193;BME280;55012;47.562;18.414;2024-01-30T03:15:34;100926.34;;;-1.42;100.00
68193;BME280;55012;47.562;18.414;2024-01-30T03:17:59;100932.69;;;-1.43;100.00
68193;BME280;55012;47.562;18.414;2024-01-30T03:20:25;100927.59;;;-1.45;100.00
68193;BME280;55012;47.562;18.414;2024-01-30T03:22:50;100919.28;;;-1.48;100.00
68193;BME280;55012;47.562;18.414;2024-01-30T03:25:15;100915.00;;;-1.49;100.00
68193;BME280;55012;47.562;18.414;2024-01-30T03:27:41;100905.88;;;-1.53;100.00
68193;BME280;55012;47.562;18.414;2024-01-30T03:30:07;100904.50;;;-1.56;100.00
68193;BME280;55012;47.562;18.414;2024-01-30T03:32:32;100900.41;;;-1.58;100.00
68193;BME280;55012;47.562;18.414;2024-01-30T03:34:57;100894.31;;;-1.59;100.00
68193;BME280;55012;47.562;18.414;2024-01-30T03:37:23;100893.72;;;-1.61;100.00
68193;BME280;55012;47.562;18.414;2024-01-30T03:39:49;100897.63;;;-1.63;100.00
68193;BME280;55012;47.562;18.414;2024-01-30T03:42:14;100890.50;;;-1.63;100.00
68193;BME280;55012;47.562;18.414;2024-01-30T03:44:39;100891.06;;;-1.61;100.00
68193;BME280;55012;47.562;18.414;2024-01-30T03:47:05;100873.75;;;-1.63;100.00
68193;BME280;55012;47.562;18.414;2024-01-30T03:49:30;100880.47;;;-1.61;100.00
68193;BME280;55012;47.562;18.414;2024-01-30T03:51:56;100878.25;;;-1.64;100.00
68193;BME280;55012;47.562;18.414;2024-01-30T03:54:21;100878.84;;;-1.62;100.00
68193;BME280;55012;47.562;18.414;2024-01-30T03:56:46;100879.06;;;-1.63;100.00
68193;BME280;55012;47.562;18.414;2024-01-30T03:59:12;100877.88;;;-1.67;100.00
68193;BME280;55012;47.562;18.414;2024-01-30T04:01:37;100871.03;;;-1.75;100.00
68193;BME280;55012;47.562;18.414;2024-01-30T04:04:02;100875.69;;;-1.71;100.00
68193;BME280;55012;47.562;18.414;2024-01-30T04:06:28;100881.44;;;-1.74;100.00
68193;BME280;55012;47.562;18.414;2024-01-30T04:08:53;100879.81;;;-1.75;100.00
68193;BME280;55012;47.562;18.414;2024-01-30T04:11:19;100870.22;;;-1.76;100.00
68193;BME280;55012;47.562;18.414;2024-01-30T04:13:45;100875.31;;;-1.74;100.00
68193;BME280;55012;47.562;18.414;2024-01-30T04:16:22;100864.56;;;-1.79;100.00
68193;BME280;55012;47.562;18.414;2024-01-30T04:18:48;100869.66;;;-1.78;100.00
68193;BME280;55012;47.562;18.414;2024-01-30T04:21:13;100872.31;;;-1.78;100.00
68193;BME280;55012;47.562;18.414;2024-01-30T04:23:40;100868.38;;;-1.75;100.00
68193;BME280;55012;47.562;18.414;2024-01-30T04:26:05;100861.47;;;-1.76;100.00
68193;BME280;55012;47.562;18.414;2024-01-30T04:28:31;100859.50;;;-1.81;100.00
68193;BME280;55012;47.562;18.414;2024-01-30T04:30:56;100861.53;;;-1.83;100.00
68193;BME280;55012;47.562;18.414;2024-01-30T04:33:22;100861.91;;;-1.79;100.00
68193;BME280;55012;47.562;18.414;2024-01-30T04:35:47;100870.69;;;-1.79;100.00
68193;BME280;55012;47.562;18.414;2024-01-30T04:38:13;100865.38;;;-1.79;100.00
68193;BME280;55012;47.562;18.414;2024-01-30T04:40:39;100862.94;;;-1.80;100.00
68193;BME280;55012;47.562;18.414;2024-01-30T04:43:05;100863.06;;;-1.75;100.00
68193;BME280;55012;47.562;18.414;2024-01-30T04:45:30;100862.66;;;-1.72;100.00
68193;BME280;55012;47.562;18.414;2024-01-30T04:47:55;100856.06;;;-1.70;100.00
68193;BME280;55012;47.562;18.414;2024-01-30T04:50:21;100850.53;;;-1.68;100.00
68193;BME280;55012;47.562;18.414;2024-01-30T04:52:46;100843.03;;;-1.71;100.00
68193;BME280;55012;47.562;18.414;2024-01-30T04:55:11;100852.97;;;-1.66;100.00
68193;BME280;55012;47.562;18.414;2024-01-30T04:57:37;100848.25;;;-1.64;100.00
68193;BME280;55012;47.562;18.414;2024-01-30T05:00:02;100847.00;;;-1.62;100.00
68193;BME280;55012;47.562;18.414;2024-01-30T05:02:28;100833.38;;;-1.65;100.00
68193;BME280;55012;47.562;18.414;2024-01-30T05:04:54;100841.91;;;-1.63;100.00
68193;BME280;55012;47.562;18.414;2024-01-30T05:07:19;100837.66;;;-1.64;100.00
68193;BME280;55012;47.562;18.414;2024-01-30T05:09:45;100835.00;;;-1.64;100.00
68193;BME280;55012;47.562;18.414;2024-01-30T05:12:10;100833.38;;;-1.65;100.00
68193;BME280;55012;47.562;18.414;2024-01-30T05:14:35;100826.44;;;-1.66;100.00
68193;BME280;55012;47.562;18.414;2024-01-30T05:17:01;100826.44;;;-1.66;100.00
68193;BME280;55012;47.562;18.414;2024-01-30T05:19:28;100821.94;;;-1.66;100.00
68193;BME280;55012;47.562;18.414;2024-01-30T05:21:53;100823.91;;;-1.73;100.00
68193;BME280;55012;47.562;18.414;2024-01-30T05:24:19;100823.50;;;-1.77;100.00
68193;BME280;55012;47.562;18.414;2024-01-30T05:26:44;100824.09;;;-1.75;100.00
68193;BME280;55012;47.562;18.414;2024-01-30T05:29:09;100836.19;;;-1.79;100.00
68193;BME280;55012;47.562;18.414;2024-01-30T05:31:35;100836.44;;;-1.80;100.00
68193;BME280;55012;47.562;18.414;2024-01-30T05:34:00;100834.81;;;-1.81;100.00
68193;BME280;55012;47.562;18.414;2024-01-30T05:36:26;100820.81;;;-1.88;100.00
68193;BME280;55012;47.562;18.414;2024-01-30T05:38:51;100834.09;;;-1.88;100.00
68193;BME280;55012;47.562;18.414;2024-01-30T05:41:17;100833.28;;;-1.89;100.00
68193;BME280;55012;47.562;18.414;2024-01-30T05:43:42;100829.22;;;-1.91;100.00
68193;BME280;55012;47.562;18.414;2024-01-30T05:46:07;100823.56;;;-1.95;100.00
68193;BME280;55012;47.562;18.414;2024-01-30T05:48:33;100819.06;;;-1.94;100.00
68193;BME280;55012;47.562;18.414;2024-01-30T05:51:00;100822.28;;;-1.92;100.00
68193;BME280;55012;47.562;18.414;2024-01-30T05:53:26;100817.66;;;-1.97;100.00
68193;BME280;55012;47.562;18.414;2024-01-30T05:55:51;100816.06;;;-1.98;100.00
68193;BME280;55012;47.562;18.414;2024-01-30T05:58:16;100817.06;;;-1.99;100.00
68193;BME280;55012;47.562;18.414;2024-01-30T06:00:42;100822.81;;;-2.02;100.00
68193;BME280;55012;47.562;18.414;2024-01-30T06:03:07;100817.97;;;-2.05;100.00
68193;BME280;55012;47.562;18.414;2024-01-30T06:05:32;100822.47;;;-2.06;100.00
68193;BME280;55012;47.562;18.414;2024-01-30T06:07:58;100819.19;;;-2.08;100.00
68193;BME280;55012;47.562;18.414;2024-01-30T06:10:23;100813.72;;;-2.06;100.00
68193;BME280;55012;47.562;18.414;2024-01-30T06:12:48;100815.09;;;-2.04;100.00
68193;BME280;55012;47.562;18.414;2024-01-30T06:15:14;100811.41;;;-2.03;100.00
68193;BME280;55012;47.562;18.414;2024-01-30T06:17:39;100809.56;;;-2.02;100.00
68193;BME280;55012;47.562;18.414;2024-01-30T06:20:06;100809.56;;;-2.02;100.00
68193;BME280;55012;47.562;18.414;2024-01-30T06:22:32;100808.28;;;-2.00;100.00
68193;BME280;55012;47.562;18.414;2024-01-30T06:24:58;100803.00;;;-2.00;100.00
68193;BME280;55012;47.562;18.414;2024-01-30T06:27:23;100803.59;;;-1.98;100.00
68193;BME280;55012;47.562;18.414;2024-01-30T06:29:48;100792.53;;;-1.94;100.00
68193;BME280;55012;47.562;18.414;2024-01-30T06:32:14;100778.81;;;-1.91;100.00
68193;BME280;55012;47.562;18.414;2024-01-30T06:34:40;100768.59;;;-1.88;100.00
68193;BME280;55012;47.562;18.414;2024-01-30T06:37:06;100751.16;;;-1.84;100.00
68193;BME280;55012;47.562;18.414;2024-01-30T06:39:31;100752.94;;;-1.78;100.00
68193;BME280;55012;47.562;18.414;2024-01-30T06:41:56;100747.63;;;-1.78;100.00
68193;BME280;55012;47.562;18.414;2024-01-30T06:44:23;100754.44;;;-1.70;100.00
68193;BME280;55012;47.562;18.414;2024-01-30T06:46:48;100744.31;;;-1.61;100.00
68193;BME280;55012;47.562;18.414;2024-01-30T06:49:14;100722.75;;;-1.65;100.00
68193;BME280;55012;47.562;18.414;2024-01-30T06:51:39;100724.03;;;-1.56;100.00
68193;BME280;55012;47.562;18.414;2024-01-30T06:54:04;100732.72;;;-1.49;100.00
68193;BME280;55012;47.562;18.414;2024-01-30T06:56:30;100723.56;;;-1.41;100.00
68193;BME280;55012;47.562;18.414;2024-01-30T06:58:55;100717.13;;;-1.33;100.00
68193;BME280;55012;47.562;18.414;2024-01-30T07:01:27;100716.44;;;-1.29;100.00
68193;BME280;55012;47.562;18.414;2024-01-30T07:03:53;100703.50;;;-1.25;100.00
68193;BME280;55012;47.562;18.414;2024-01-30T07:06:19;100713.78;;;-1.17;100.00
68193;BME280;55012;47.562;18.414;2024-01-30T07:08:45;100696.38;;;-1.13;100.00
68193;BME280;55012;47.562;18.414;2024-01-30T07:11:10;100690.47;;;-1.03;100.00
68193;BME280;55012;47.562;18.414;2024-01-30T07:13:37;100689.31;;;-0.96;100.00
68193;BME280;55012;47.562;18.414;2024-01-30T07:16:03;100683.88;;;-0.89;100.00
68193;BME280;55012;47.562;18.414;2024-01-30T07:18:28;100680.84;;;-0.81;100.00
68193;BME280;55012;47.562;18.414;2024-01-30T07:20:53;100676.22;;;-0.74;100.00
68193;BME280;55012;47.562;18.414;2024-01-30T07:23:19;100668.22;;;-0.62;100.00
68193;BME280;55012;47.562;18.414;2024-01-30T07:25:44;100663.22;;;-0.59;100.00
68193;BME280;55012;47.562;18.414;2024-01-30T07:28:10;100660.78;;;-0.48;100.00
68193;BME280;55012;47.562;18.414;2024-01-30T07:30:36;100644.91;;;-0.43;100.00
68193;BME280;55012;47.562;18.414;2024-01-30T07:33:02;100643.03;;;-0.31;100.00
68193;BME280;55012;47.562;18.414;2024-01-30T07:35:27;100657.84;;;-0.18;100.00
68193;BME280;55012;47.562;18.414;2024-01-30T07:37:53;100653.19;;;-0.11;100.00
68193;BME280;55012;47.562;18.414;2024-01-30T07:40:18;100642.66;;;-0.06;100.00
68193;BME280;55012;47.562;18.414;2024-01-30T07:42:43;100646.84;;;0.07;100.00
68193;BME280;55012;47.562;18.414;2024-01-30T07:45:09;100638.22;;;0.16;100.00
68193;BME280;55012;47.562;18.414;2024-01-30T07:47:34;100642.28;;;0.19;100.00
68193;BME280;55012;47.562;18.414;2024-01-30T07:50:00;100649.72;;;0.17;100.00
68193;BME280;55012;47.562;18.414;2024-01-30T07:52:25;100656.69;;;0.23;100.00
68193;BME280;55012;47.562;18.414;2024-01-30T07:55:09;100665.69;;;0.34;100.00
68193;BME280;55012;47.562;18.414;2024-01-30T07:57:35;100664.03;;;0.33;100.00
68193;BME280;55012;47.562;18.414;2024-01-30T08:00:01;100675.72;;;0.32;100.00
68193;BME280;55012;47.562;18.414;2024-01-30T08:02:28;100691.25;;;0.35;100.00
68193;BME280;55012;47.562;18.414;2024-01-30T08:04:53;100700.09;;;0.40;100.00
68193;BME280;55012;47.562;18.414;2024-01-30T08:07:18;100709.13;;;0.39;100.00
68193;BME280;55012;47.562;18.414;2024-01-30T08:09:44;100716.00;;;0.35;100.00
68193;BME280;55012;47.562;18.414;2024-01-30T08:12:10;100732.94;;;0.29;100.00
68193;BME280;55012;47.562;18.414;2024-01-30T08:14:35;100747.78;;;0.25;100.00
68193;BME280;55012;47.562;18.414;2024-01-30T08:17:01;100761.53;;;0.22;100.00
68193;BME280;55012;47.562;18.414;2024-01-30T08:19:26;100783.81;;;0.33;100.00
68193;BME280;55012;47.562;18.414;2024-01-30T08:21:51;100790.16;;;0.43;100.00
68193;BME280;55012;47.562;18.414;2024-01-30T08:24:17;100806.53;;;0.52;100.00
68193;BME280;55012;47.562;18.414;2024-01-30T08:26:42;100818.72;;;0.65;100.00
68193;BME280;55012;47.562;18.414;2024-01-30T08:29:07;100833.50;;;0.72;100.00
68193;BME280;55012;47.562;18.414;2024-01-30T08:31:33;100843.22;;;0.78;100.00
68193;BME280;55012;47.562;18.414;2024-01-30T08:33:58;100867.28;;;0.83;100.00
68193;BME280;55012;47.562;18.414;2024-01-30T08:36:23;100875.03;;;0.85;100.00
68193;BME280;55012;47.562;18.414;2024-01-30T08:38:49;100884.06;;;0.84;100.00
68193;BME280;55012;47.562;18.414;2024-01-30T08:41:14;100907.13;;;0.78;100.00
68193;BME280;55012;47.562;18.414;2024-01-30T08:43:39;100912.47;;;0.78;100.00
68193;BME280;55012;47.562;18.414;2024-01-30T08:46:05;100916.59;;;0.86;100.00
68193;BME280;55012;47.562;18.414;2024-01-30T08:48:30;100917.50;;;0.92;100.00
68193;BME280;55012;47.562;18.414;2024-01-30T08:50:56;100917.25;;;0.93;100.00
68193;BME280;55012;47.562;18.414;2024-01-30T08:53:21;100929.94;;;0.86;100.00
68193;BME280;55012;47.562;18.414;2024-01-30T08:55:47;100932.72;;;0.79;100.00
68193;BME280;55012;47.562;18.414;2024-01-30T08:58:12;100948.97;;;0.66;100.00
68193;BME280;55012;47.562;18.414;2024-01-30T09:00:37;100956.38;;;0.76;100.00
68193;BME280;55012;47.562;18.414;2024-01-30T09:03:03;100950.50;;;0.91;100.00
68193;BME280;55012;47.562;18.414;2024-01-30T09:05:28;100952.56;;;1.00;100.00
68193;BME280;55012;47.562;18.414;2024-01-30T09:07:54;100941.03;;;1.11;100.00
68193;BME280;55012;47.562;18.414;2024-01-30T09:10:19;100940.88;;;1.18;100.00
68193;BME280;55012;47.562;18.414;2024-01-30T09:12:46;100944.91;;;1.21;100.00
68193;BME280;55012;47.562;18.414;2024-01-30T09:15:11;100949.28;;;1.27;100.00
68193;BME280;55012;47.562;18.414;2024-01-30T09:17:36;100950.50;;;1.19;100.00
68193;BME280;55012;47.562;18.414;2024-01-30T09:20:02;100961.06;;;1.14;100.00
68193;BME280;55012;47.562;18.414;2024-01-30T09:22:27;100967.44;;;1.13;100.00
68193;BME280;55012;47.562;18.414;2024-01-30T09:24:53;100980.91;;;1.06;100.00
68193;BME280;55012;47.562;18.414;2024-01-30T09:27:18;100985.50;;;0.94;100.00
68193;BME280;55012;47.562;18.414;2024-01-30T09:29:43;100984.00;;;0.87;100.00
68193;BME280;55012;47.562;18.414;2024-01-30T09:32:09;100995.19;;;0.72;100.00
68193;BME280;55012;47.562;18.414;2024-01-30T09:34:34;100989.66;;;0.62;100.00
68193;BME280;55012;47.562;18.414;2024-01-30T09:37:00;100984.56;;;0.60;100.00
68193;BME280;55012;47.562;18.414;2024-01-30T09:39:25;100993.13;;;0.62;100.00
68193;BME280;55012;47.562;18.414;2024-01-30T09:44:29;100976.09;;;0.63;100.00
68193;BME280;55012;47.562;18.414;2024-01-30T09:46:55;100972.13;;;0.77;100.00
68193;BME280;55012;47.562;18.414;2024-01-30T09:49:24;100955.50;;;0.87;100.00
68193;BME280;55012;47.562;18.414;2024-01-30T09:51:50;100951.91;;;0.93;100.00
68193;BME280;55012;47.562;18.414;2024-01-30T09:54:15;100948.19;;;0.94;100.00
68193;BME280;55012;47.562;18.414;2024-01-30T09:56:41;100944.22;;;0.97;100.00
68193;BME280;55012;47.562;18.414;2024-01-30T09:59:07;100947.84;;;0.91;100.00
68193;BME280;55012;47.562;18.414;2024-01-30T10:01:34;100944.28;;;0.85;100.00
68193;BME280;55012;47.562;18.414;2024-01-30T10:04:00;100950.09;;;0.82;100.00
68193;BME280;55012;47.562;18.414;2024-01-30T10:06:26;100953.78;;;0.81;100.00
68193;BME280;55012;47.562;18.414;2024-01-30T10:08:52;100948.94;;;0.78;100.00
68193;BME280;55012;47.562;18.414;2024-01-30T10:11:18;100939.91;;;0.79;100.00
68193;BME280;55012;47.562;18.414;2024-01-30T10:13:43;100937.72;;;0.76;100.00
68193;BME280;55012;47.562;18.414;2024-01-30T10:16:08;100939.09;;;0.78;100.00
68193;BME280;55012;47.562;18.414;2024-01-30T10:18:34;100925.09;;;0.83;100.00
68193;BME280;55012;47.562;18.414;2024-01-30T10:20:59;100923.53;;;0.87;100.00
68193;BME280;55012;47.562;18.414;2024-01-30T10:23:25;100920.50;;;0.95;100.00
68193;BME280;55012;47.562;18.414;2024-01-30T10:25:51;100910.88;;;0.94;100.00
68193;BME280;55012;47.562;18.414;2024-01-30T10:28:17;100910.41;;;0.97;100.00
68193;BME280;55012;47.562;18.414;2024-01-30T10:30:42;100909.69;;;1.02;100.00
68193;BME280;55012;47.562;18.414;2024-01-30T10:33:08;100907.34;;;1.05;100.00
68193;BME280;55012;47.562;18.414;2024-01-30T10:35:33;100906.13;;;1.13;100.00
68193;BME280;55012;47.562;18.414;2024-01-30T10:37:59;100886.28;;;1.21;100.00
68193;BME280;55012;47.562;18.414;2024-01-30T10:40:27;100890.16;;;1.30;100.00
68193;BME280;55012;47.562;18.414;2024-01-30T10:42:53;100887.03;;;1.33;100.00
68193;BME280;55012;47.562;18.414;2024-01-30T10:45:22;100874.81;;;1.37;100.00
68193;BME280;55012;47.562;18.414;2024-01-30T10:47:54;100863.97;;;1.44;100.00
68193;BME280;55012;47.562;18.414;2024-01-30T10:50:24;100862.19;;;1.49;100.00
68193;BME280;55012;47.562;18.414;2024-01-30T10:52:50;100855.88;;;1.55;100.00
68193;BME280;55012;47.562;18.414;2024-01-30T10:55:16;100855.13;;;1.60;100.00
68193;BME280;55012;47.562;18.414;2024-01-30T10:57:43;100851.16;;;1.62;100.00
68193;BME280;55012;47.562;18.414;2024-01-30T11:00:10;100858.66;;;1.65;100.00
68193;BME280;55012;47.562;18.414;2024-01-30T11:02:42;100850.19;;;1.68;100.00
68193;BME280;55012;47.562;18.414;2024-01-30T11:05:09;100840.06;;;1.71;100.00
68193;BME280;55012;47.562;18.414;2024-01-30T11:07:34;100849.69;;;1.72;100.00
68193;BME280;55012;47.562;18.414;2024-01-30T11:10:01;100852.91;;;1.74;100.00
68193;BME280;55012;47.562;18.414;2024-01-30T11:12:27;100851.31;;;1.73;100.00
68193;BME280;55012;47.562;18.414;2024-01-30T11:15:06;100853.53;;;1.81;100.00
68193;BME280;55012;47.562;18.414;2024-01-30T11:17:52;100846.66;;;1.85;100.00
68193;BME280;55012;47.562;18.414;2024-01-30T11:22:47;100847.59;;;1.95;100.00
68193;BME280;55012;47.562;18.414;2024-01-30T11:25:17;100835.63;;;1.98;100.00
68193;BME280;55012;47.562;18.414;2024-01-30T11:27:43;100850.25;;;1.95;100.00
68193;BME280;55012;47.562;18.414;2024-01-30T11:30:09;100850.53;;;1.94;100.00
68193;BME280;55012;47.562;18.414;2024-01-30T11:32:35;100844.38;;;1.93;100.00
68193;BME280;55012;47.562;18.414;2024-01-30T11:35:03;100852.56;;;1.87;100.00
68193;BME280;55012;47.562;18.414;2024-01-30T11:37:30;100857.66;;;1.88;100.00
68193;BME280;55012;47.562;18.414;2024-01-30T11:39:56;100866.22;;;1.90;100.00
68193;BME280;55012;47.562;18.414;2024-01-30T11:42:23;100863.06;;;1.93;100.00
68193;BME280;55012;47.562;18.414;2024-01-30T11:44:50;100850.25;;;1.95;100.00
68193;BME280;55012;47.562;18.414;2024-01-30T11:47:16;100851.06;;;1.96;100.00
68193;BME280;55012;47.562;18.414;2024-01-30T11:49:41;100857.41;;;1.90;100.00
68193;BME280;55012;47.562;18.414;2024-01-30T11:52:07;100847.97;;;1.82;100.00
68193;BME280;55012;47.562;18.414;2024-01-30T11:54:33;100863.16;;;1.82;100.00
68193;BME280;55012;47.562;18.414;2024-01-30T11:56:58;100855.91;;;1.77;100.00
68193;BME280;55012;47.562;18.414;2024-01-30T11:59:24;100857.53;;;1.78;100.00
68193;BME280;55012;47.562;18.414;2024-01-30T12:01:51;100844.47;;;1.82;100.00
68193;BME280;55012;47.562;18.414;2024-01-30T12:04:17;100844.25;;;1.83;100.00
68193;BME280;55012;47.562;18.414;2024-01-30T12:06:42;100830.59;;;1.80;100.00
68193;BME280;55012;47.562;18.414;2024-01-30T12:09:09;100830.09;;;1.83;100.00
68193;BME280;55012;47.562;18.414;2024-01-30T12:11:45;100826.38;;;1.84;100.00
68193;BME280;55012;47.562;18.414;2024-01-30T12:14:11;100813.88;;;1.89;100.00
68193;BME280;55012;47.562;18.414;2024-01-30T12:16:37;100811.03;;;1.96;100.00
68193;BME280;55012;47.562;18.414;2024-01-30T12:19:02;100804.66;;;1.97;100.00
68193;BME280;55012;47.562;18.414;2024-01-30T12:21:29;100801.50;;;2.00;100.00
68193;BME280;55012;47.562;18.414;2024-01-30T12:23:54;100791.13;;;2.04;100.00
68193;BME280;55012;47.562;18.414;2024-01-30T12:26:19;100784.78;;;2.10;100.00
68193;BME280;55012;47.562;18.414;2024-01-30T12:28:50;100778.69;;;2.14;100.00
68193;BME280;55012;47.562;18.414;2024-01-30T12:31:16;100786.69;;;2.14;100.00